createdAt,value
2022-11-12T00:01:15.854Z,101515.85
2022-11-12T00:02:37.416Z,101509.70
2022-11-12T00:03:59.411Z,101513.78
2022-11-12T00:05:20.471Z,101511.73
2022-11-12T00:06:41.586Z,101509.09
2022-11-12T00:08:04.028Z,101516.05
2022-11-12T00:09:24.976Z,101511.09
2022-11-12T00:10:46.883Z,101517.39
2022-11-12T00:12:08.867Z,101514.03
2022-11-12T00:13:30.963Z,101511.48
2022-11-12T00:14:52.857Z,101512.25
2022-11-12T00:16:16.360Z,101513.78
2022-11-12T00:17:38.611Z,101513.84
2022-11-12T00:19:00.709Z,101522.41
2022-11-12T00:20:25.436Z,101518.16
2022-11-12T00:21:47.619Z,101517.11
2022-11-12T00:23:09.819Z,101526.09
2022-11-12T00:24:32.532Z,101516.43
2022-11-12T00:26:01.744Z,101522.19
2022-11-12T00:27:23.097Z,101521.05
2022-11-12T00:28:46.568Z,101518.26
2022-11-12T00:30:09.276Z,101522.58
2022-11-12T00:31:31.142Z,101520.03
2022-11-12T00:32:52.959Z,101527.00
2022-11-12T00:34:14.785Z,101522.67
2022-11-12T00:35:37.398Z,101530.61
2022-11-12T00:36:59.460Z,101529.02
2022-11-12T00:38:23.285Z,101529.52
2022-11-12T00:39:48.044Z,101525.27
2022-11-12T00:41:10.135Z,101529.94
2022-11-12T00:42:32.122Z,101528.02
2022-11-12T00:43:54.234Z,101522.63
2022-11-12T00:45:18.202Z,101528.69
2022-11-12T00:46:39.869Z,101533.89
2022-11-12T00:48:03.744Z,101536.91
2022-11-12T00:49:27.302Z,101536.03
2022-11-12T00:50:50.070Z,101537.34
2022-11-12T00:52:13.181Z,101538.31
2022-11-12T00:53:35.590Z,101539.80
2022-11-12T00:54:56.990Z,101537.30
2022-11-12T00:56:20.816Z,101542.53
2022-11-12T00:57:45.012Z,101537.39
2022-11-12T00:59:06.262Z,101532.92
2022-11-12T01:00:28.443Z,101541.90
2022-11-12T01:01:49.520Z,101544.59
2022-11-12T01:03:11.296Z,101536.19
2022-11-12T01:04:33.315Z,101537.00
2022-11-12T01:05:55.284Z,101536.19
2022-11-12T01:07:16.128Z,101539.75
2022-11-12T01:08:38.871Z,101535.56
2022-11-12T01:10:00.646Z,101538.11
2022-11-12T01:11:29.324Z,101536.19
2022-11-12T01:12:53.957Z,101527.44
2022-11-12T01:14:22.558Z,101537.00
2022-11-12T01:15:44.598Z,101535.42
2022-11-12T01:17:08.349Z,101530.85
2022-11-12T01:18:30.355Z,101532.63
2022-11-12T01:19:51.468Z,101530.95
2022-11-12T01:21:14.645Z,101534.02
2022-11-12T01:22:36.428Z,101533.39
2022-11-12T01:23:58.942Z,101533.25
2022-11-12T01:25:20.778Z,101529.20
2022-11-12T01:26:43.495Z,101527.09
2022-11-12T01:28:04.416Z,101531.52
2022-11-12T01:29:26.389Z,101529.12
2022-11-12T01:30:51.038Z,101534.93
